sensor_id;sensor_type;location;lat;lon;timestamp;pressure;altitude;pressure_sealevel;temperature;humidity
75891;BME280;64571;47.512;19.054;2023-04-30T00:02:49;100282.22;;;14.31;62.32
75891;BME280;64571;47.512;19.054;2023-04-30T00:05:52;100298.34;;;14.34;62.62
75891;BME280;64571;47.512;19.054;2023-04-30T00:08:54;100284.84;;;14.19;63.06
75891;BME280;64571;47.512;19.054;2023-04-30T00:11:57;100299.81;;;14.23;63.46
75891;BME280;64571;47.512;19.054;2023-04-30T00:14:59;100299.78;;;14.14;63.79
75891;BME280;64571;47.512;19.054;2023-04-30T00:18:03;100303.41;;;14.15;63.81
75891;BME280;64571;47.512;19.054;2023-04-30T00:21:05;100303.03;;;14.08;64.26
75891;BME280;64571;47.512;19.054;2023-04-30T00:24:08;100296.44;;;14.04;64.61
75891;BME280;64571;47.512;19.054;2023-04-30T00:27:10;100275.69;;;13.87;64.92
75891;BME280;64571;47.512;19.054;2023-04-30T00:30:13;100302.81;;;13.96;66.19
75891;BME280;64571;47.512;19.054;2023-04-30T00:33:16;100292.62;;;13.91;66.25
75891;BME280;64571;47.512;19.054;2023-04-30T00:36:18;100301.97;;;13.86;66.74
75891;BME280;64571;47.512;19.054;2023-04-30T00:39:21;100295.53;;;13.77;66.93
75891;BME280;64571;47.512;19.054;2023-04-30T00:42:23;100278.56;;;13.65;67.18
75891;BME280;64571;47.512;19.054;2023-04-30T00:45:26;100283.34;;;13.64;67.28
75891;BME280;64571;47.512;19.054;2023-04-30T00:48:28;100275.59;;;13.61;67.31
75891;BME280;64571;47.512;19.054;2023-04-30T00:51:31;100296.34;;;13.69;66.82
75891;BME280;64571;47.512;19.054;2023-04-30T00:54:34;100286.44;;;13.63;66.81
75891;BME280;64571;47.512;19.054;2023-04-30T00:57:37;100273.56;;;13.53;67.10
75891;BME280;64571;47.512;19.054;2023-04-30T01:00:41;100268.63;;;13.50;67.09
75891;BME280;64571;47.512;19.054;2023-04-30T01:03:48;100282.62;;;13.59;67.11
75891;BME280;64571;47.512;19.054;2023-04-30T01:06:51;100286.91;;;13.56;67.18
75891;BME280;64571;47.512;19.054;2023-04-30T01:09:53;100278.47;;;13.48;67.26
75891;BME280;64571;47.512;19.054;2023-04-30T01:13:15;100282.62;;;13.59;67.31
75891;BME280;64571;47.512;19.054;2023-04-30T01:16:25;100285.06;;;13.52;67.49
75891;BME280;64571;47.512;19.054;2023-04-30T01:19:41;100291.91;;;13.46;67.75
75891;BME280;64571;47.512;19.054;2023-04-30T01:23:01;100289.47;;;13.44;67.66
75891;BME280;64571;47.512;19.054;2023-04-30T01:26:41;100289.53;;;13.30;68.25
75891;BME280;64571;47.512;19.054;2023-04-30T01:29:38;100283.97;;;13.30;67.97
75891;BME280;64571;47.512;19.054;2023-04-30T01:32:43;100289.53;;;13.30;68.18
75891;BME280;64571;47.512;19.054;2023-04-30T01:36:09;100285.47;;;13.36;68.26
75891;BME280;64571;47.512;19.054;2023-04-30T01:42:40;100288.78;;;13.38;68.05
75891;BME280;64571;47.512;19.054;2023-04-30T01:55:41;100295.50;;;13.37;67.96
75891;BME280;64571;47.512;19.054;2023-04-30T01:58:45;100300.44;;;13.40;67.79
75891;BME280;64571;47.512;19.054;2023-04-30T02:01:49;100301.09;;;13.37;67.70
75891;BME280;64571;47.512;19.054;2023-04-30T02:04:53;100286.28;;;13.37;67.12
75891;BME280;64571;47.512;19.054;2023-04-30T02:07:55;100295.09;;;13.53;66.76
75891;BME280;64571;47.512;19.054;2023-04-30T02:10:58;100297.87;;;13.53;66.76
75891;BME280;64571;47.512;19.054;2023-04-30T02:14:00;100291.66;;;13.56;66.74
75891;BME280;64571;47.512;19.054;2023-04-30T02:17:03;100286.09;;;13.56;66.64
75891;BME280;64571;47.512;19.054;2023-04-30T02:20:07;100281.94;;;13.53;66.66
75891;BME280;64571;47.512;19.054;2023-04-30T02:23:09;100276.38;;;13.53;66.63
75891;BME280;64571;47.512;19.054;2023-04-30T02:26:12;100284.06;;;13.48;66.80
75891;BME280;64571;47.512;19.054;2023-04-30T02:29:14;100287.81;;;13.43;67.11
75891;BME280;64571;47.512;19.054;2023-04-30T02:32:18;100292.81;;;13.32;67.37
75891;BME280;64571;47.512;19.054;2023-04-30T02:35:21;100275.97;;;13.15;67.16
75891;BME280;64571;47.512;19.054;2023-04-30T02:38:24;100287.63;;;13.17;66.88
75891;BME280;64571;47.512;19.054;2023-04-30T02:41:26;100279.12;;;13.00;66.58
75891;BME280;64571;47.512;19.054;2023-04-30T02:44:29;100293.34;;;13.12;66.52
75891;BME280;64571;47.512;19.054;2023-04-30T02:47:31;100297.56;;;13.09;66.45
75891;BME280;64571;47.512;19.054;2023-04-30T02:50:34;100306.28;;;13.08;66.78
75891;BME280;64571;47.512;19.054;2023-04-30T02:53:36;100303.47;;;13.08;66.83
75891;BME280;64571;47.512;19.054;2023-04-30T02:56:39;100300.81;;;13.03;66.72
75891;BME280;64571;47.512;19.054;2023-04-30T02:59:41;100300.06;;;13.11;66.65
75891;BME280;64571;47.512;19.054;2023-04-30T03:02:48;100307.78;;;13.14;66.49
75891;BME280;64571;47.512;19.054;2023-04-30T03:05:50;100292.94;;;13.05;66.57
75891;BME280;64571;47.512;19.054;2023-04-30T03:08:53;100288.19;;;13.05;66.50
75891;BME280;64571;47.512;19.054;2023-04-30T03:11:55;100308.72;;;13.09;66.88
75891;BME280;64571;47.512;19.054;2023-04-30T03:14:58;100303.88;;;13.15;66.68
75891;BME280;64571;47.512;19.054;2023-04-30T03:18:00;100301.78;;;13.21;66.54
75891;BME280;64571;47.512;19.054;2023-04-30T03:21:03;100298.06;;;13.25;66.38
75891;BME280;64571;47.512;19.054;2023-04-30T03:24:05;100283.69;;;13.18;66.30
75891;BME280;64571;47.512;19.054;2023-04-30T03:27:08;100278.63;;;13.20;66.33
75891;BME280;64571;47.512;19.054;2023-04-30T03:30:10;100296.62;;;13.36;66.13
75891;BME280;64571;47.512;19.054;2023-04-30T03:33:13;100301.72;;;13.34;66.25
75891;BME280;64571;47.512;19.054;2023-04-30T03:36:15;100297.63;;;13.18;66.59
75891;BME280;64571;47.512;19.054;2023-04-30T03:39:18;100309.72;;;13.27;66.58
75891;BME280;64571;47.512;19.054;2023-04-30T03:42:20;100311.34;;;13.28;66.29
75891;BME280;64571;47.512;19.054;2023-04-30T03:45:23;100308.75;;;13.32;67.18
75891;BME280;64571;47.512;19.054;2023-04-30T03:48:26;100294.94;;;13.27;67.17
75891;BME280;64571;47.512;19.054;2023-04-30T03:51:29;100283.16;;;13.30;68.63
75891;BME280;64571;47.512;19.054;2023-04-30T03:54:32;100303.22;;;13.40;69.26
75891;BME280;64571;47.512;19.054;2023-04-30T03:57:35;100302.78;;;13.47;69.24
75891;BME280;64571;47.512;19.054;2023-04-30T04:00:39;100285.66;;;13.40;70.47
75891;BME280;64571;47.512;19.054;2023-04-30T04:03:43;100292.06;;;13.40;71.10
75891;BME280;64571;47.512;19.054;2023-04-30T04:06:46;100308.22;;;13.52;71.38
75891;BME280;64571;47.512;19.054;2023-04-30T04:09:48;100311.31;;;13.51;72.19
75891;BME280;64571;47.512;19.054;2023-04-30T04:12:51;100318.75;;;13.55;73.01
75891;BME280;64571;47.512;19.054;2023-04-30T04:15:54;100321.72;;;13.59;72.77
75891;BME280;64571;47.512;19.054;2023-04-30T04:18:57;100328.59;;;13.53;73.63
75891;BME280;64571;47.512;19.054;2023-04-30T04:22:00;100327.09;;;13.47;74.05
75891;BME280;64571;47.512;19.054;2023-04-30T04:25:03;100336.03;;;13.35;75.02
75891;BME280;64571;47.512;19.054;2023-04-30T04:28:06;100348.03;;;13.35;75.10
75891;BME280;64571;47.512;19.054;2023-04-30T04:31:09;100353.13;;;13.33;75.34
75891;BME280;64571;47.512;19.054;2023-04-30T04:34:12;100340.41;;;13.27;75.32
75891;BME280;64571;47.512;19.054;2023-04-30T04:37:15;100351.97;;;13.34;75.12
75891;BME280;64571;47.512;19.054;2023-04-30T04:40:18;100358.50;;;13.52;74.83
75891;BME280;64571;47.512;19.054;2023-04-30T04:43:21;100373.22;;;13.44;75.43
75891;BME280;64571;47.512;19.054;2023-04-30T04:46:24;100378.34;;;13.28;76.21
75891;BME280;64571;47.512;19.054;2023-04-30T04:49:27;100384.19;;;13.40;75.70
75891;BME280;64571;47.512;19.054;2023-04-30T04:52:30;100369.03;;;13.33;75.46
75891;BME280;64571;47.512;19.054;2023-04-30T04:55:32;100370.09;;;13.46;75.11
75891;BME280;64571;47.512;19.054;2023-04-30T04:58:35;100364.28;;;13.33;75.44
75891;BME280;64571;47.512;19.054;2023-04-30T05:01:37;100389.72;;;13.18;76.47
75891;BME280;64571;47.512;19.054;2023-04-30T05:04:40;100367.84;;;13.11;76.37
75891;BME280;64571;47.512;19.054;2023-04-30T05:07:43;100389.72;;;13.18;76.44
75891;BME280;64571;47.512;19.054;2023-04-30T05:10:45;100377.19;;;13.07;76.56
75891;BME280;64571;47.512;19.054;2023-04-30T05:13:48;100406.59;;;13.27;76.27
75891;BME280;64571;47.512;19.054;2023-04-30T05:16:50;100383.00;;;13.19;76.20
75891;BME280;64571;47.512;19.054;2023-04-30T05:19:53;100400.81;;;13.23;76.42
75891;BME280;64571;47.512;19.054;2023-04-30T05:22:56;100404.88;;;13.39;76.02
75891;BME280;64571;47.512;19.054;2023-04-30T05:25:58;100390.66;;;13.27;76.21
75891;BME280;64571;47.512;19.054;2023-04-30T05:29:01;100385.63;;;13.15;76.69
75891;BME280;64571;47.512;19.054;2023-04-30T05:32:04;100401.00;;;13.27;76.79
75891;BME280;64571;47.512;19.054;2023-04-30T05:35:07;100396.25;;;13.13;77.22
75891;BME280;64571;47.512;19.054;2023-04-30T05:38:10;100404.62;;;13.27;76.90
75891;BME280;64571;47.512;19.054;2023-04-30T05:41:12;100408.28;;;13.36;76.54
75891;BME280;64571;47.512;19.054;2023-04-30T05:44:15;100411.16;;;13.45;76.24
75891;BME280;64571;47.512;19.054;2023-04-30T05:47:18;100403.37;;;13.33;76.19
75891;BME280;64571;47.512;19.054;2023-04-30T05:50:20;100410.00;;;13.24;76.44
75891;BME280;64571;47.512;19.054;2023-04-30T05:53:23;100424.84;;;13.55;75.53
75891;BME280;64571;47.512;19.054;2023-04-30T05:56:25;100408.94;;;13.56;75.20
75891;BME280;64571;47.512;19.054;2023-04-30T05:59:28;100419.94;;;14.06;74.07
75891;BME280;64571;47.512;19.054;2023-04-30T06:02:30;100405.03;;;14.67;71.38
75891;BME280;64571;47.512;19.054;2023-04-30T06:05:33;100416.34;;;15.37;69.27
75891;BME280;64571;47.512;19.054;2023-04-30T06:08:35;100416.00;;;15.47;68.22
75891;BME280;64571;47.512;19.054;2023-04-30T06:11:38;100412.19;;;15.78;67.34
75891;BME280;64571;47.512;19.054;2023-04-30T06:14:43;100418.78;;;16.29;65.05
75891;BME280;64571;47.512;19.054;2023-04-30T06:17:47;100419.03;;;16.53;64.36
75891;BME280;64571;47.512;19.054;2023-04-30T06:20:49;100399.37;;;16.53;63.65
75891;BME280;64571;47.512;19.054;2023-04-30T06:23:52;100407.41;;;16.72;63.19
75891;BME280;64571;47.512;19.054;2023-04-30T06:26:54;100418.03;;;16.87;62.95
75891;BME280;64571;47.512;19.054;2023-04-30T06:29:57;100408.25;;;16.93;61.66
75891;BME280;64571;47.512;19.054;2023-04-30T06:33:02;100414.62;;;17.03;61.38
75891;BME280;64571;47.512;19.054;2023-04-30T06:36:05;100399.25;;;16.79;61.31
75891;BME280;64571;47.512;19.054;2023-04-30T06:39:08;100417.78;;;17.22;60.09
75891;BME280;64571;47.512;19.054;2023-04-30T06:42:10;100416.63;;;17.23;59.37
75891;BME280;64571;47.512;19.054;2023-04-30T06:45:13;100414.50;;;17.41;59.19
75891;BME280;64571;47.512;19.054;2023-04-30T06:48:16;100404.81;;;17.51;58.50
75891;BME280;64571;47.512;19.054;2023-04-30T06:51:19;100409.53;;;17.59;58.00
75891;BME280;64571;47.512;19.054;2023-04-30T06:54:21;100408.28;;;17.89;57.16
75891;BME280;64571;47.512;19.054;2023-04-30T06:57:24;100409.50;;;18.13;55.95
75891;BME280;64571;47.512;19.054;2023-04-30T07:00:27;100397.09;;;18.38;55.07
75891;BME280;64571;47.512;19.054;2023-04-30T07:03:29;100392.66;;;18.37;54.50
75891;BME280;64571;47.512;19.054;2023-04-30T07:06:32;100407.31;;;18.55;53.68
75891;BME280;64571;47.512;19.054;2023-04-30T07:09:35;100408.38;;;18.75;53.16
75891;BME280;64571;47.512;19.054;2023-04-30T07:12:37;100402.50;;;18.56;53.87
75891;BME280;64571;47.512;19.054;2023-04-30T07:15:40;100417.03;;;18.58;52.17
75891;BME280;64571;47.512;19.054;2023-04-30T07:18:43;100397.09;;;18.51;52.38
75891;BME280;64571;47.512;19.054;2023-04-30T07:21:46;100408.91;;;18.32;54.21
75891;BME280;64571;47.512;19.054;2023-04-30T07:24:48;100425.44;;;17.55;57.43
75891;BME280;64571;47.512;19.054;2023-04-30T07:27:51;100421.31;;;18.06;56.19
75891;BME280;64571;47.512;19.054;2023-04-30T07:30:54;100406.56;;;18.21;54.14
75891;BME280;64571;47.512;19.054;2023-04-30T07:33:57;100421.19;;;18.03;55.06
75891;BME280;64571;47.512;19.054;2023-04-30T07:37:00;100413.97;;;17.60;55.98
75891;BME280;64571;47.512;19.054;2023-04-30T07:40:03;100415.06;;;17.34;56.55
75891;BME280;64571;47.512;19.054;2023-04-30T07:43:05;100423.66;;;17.50;56.61
75891;BME280;64571;47.512;19.054;2023-04-30T07:46:08;100413.66;;;17.40;55.93
75891;BME280;64571;47.512;19.054;2023-04-30T07:49:11;100401.38;;;17.66;55.27
75891;BME280;64571;47.512;19.054;2023-04-30T07:52:13;100421.41;;;17.98;54.86
75891;BME280;64571;47.512;19.054;2023-04-30T07:55:16;100426.44;;;18.37;53.07
75891;BME280;64571;47.512;19.054;2023-04-30T07:58:18;100424.88;;;18.40;52.74
75891;BME280;64571;47.512;19.054;2023-04-30T08:01:21;100427.59;;;18.61;52.54
75891;BME280;64571;47.512;19.054;2023-04-30T08:04:24;100426.78;;;18.72;52.04
75891;BME280;64571;47.512;19.054;2023-04-30T08:07:27;100422.78;;;18.61;51.68
75891;BME280;64571;47.512;19.054;2023-04-30T08:10:30;100413.84;;;18.35;52.79
75891;BME280;64571;47.512;19.054;2023-04-30T08:13:33;100434.88;;;18.37;53.06
75891;BME280;64571;47.512;19.054;2023-04-30T08:16:35;100426.87;;;18.64;52.32
75891;BME280;64571;47.512;19.054;2023-04-30T08:19:38;100431.72;;;18.88;51.05
75891;BME280;64571;47.512;19.054;2023-04-30T08:22:41;100425.97;;;18.84;50.64
75891;BME280;64571;47.512;19.054;2023-04-30T08:25:43;100429.44;;;19.18;49.83
75891;BME280;64571;47.512;19.054;2023-04-30T08:28:45;100434.75;;;18.95;50.24
75891;BME280;64571;47.512;19.054;2023-04-30T08:31:48;100431.59;;;18.84;49.90
75891;BME280;64571;47.512;19.054;2023-04-30T08:34:51;100414.00;;;18.87;49.86
75891;BME280;64571;47.512;19.054;2023-04-30T08:37:53;100426.41;;;19.11;49.51
75891;BME280;64571;47.512;19.054;2023-04-30T08:41:12;100427.09;;;19.20;48.49
75891;BME280;64571;47.512;19.054;2023-04-30T08:44:15;100415.41;;;18.93;49.11
75891;BME280;64571;47.512;19.054;2023-04-30T08:47:18;100429.47;;;18.44;50.07
75891;BME280;64571;47.512;19.054;2023-04-30T08:50:21;100433.25;;;18.73;49.65
75891;BME280;64571;47.512;19.054;2023-04-30T08:53:24;100428.75;;;19.49;47.67
75891;BME280;64571;47.512;19.054;2023-04-30T08:56:27;100413.91;;;19.36;47.25
75891;BME280;64571;47.512;19.054;2023-04-30T08:59:32;100429.41;;;19.30;47.25
75891;BME280;64571;47.512;19.054;2023-04-30T09:02:39;100428.75;;;19.49;46.77
75891;BME280;64571;47.512;19.054;2023-04-30T09:05:43;100430.06;;;19.64;46.47
75891;BME280;64571;47.512;19.054;2023-04-30T09:08:49;100403.91;;;19.39;46.64
75891;BME280;64571;47.512;19.054;2023-04-30T09:11:52;100420.25;;;19.33;46.95
75891;BME280;64571;47.512;19.054;2023-04-30T09:15:02;100419.63;;;19.40;46.12
75891;BME280;64571;47.512;19.054;2023-04-30T09:18:09;100406.44;;;19.84;45.09
75891;BME280;64571;47.512;19.054;2023-04-30T09:21:13;100423.78;;;20.30;43.79
75891;BME280;64571;47.512;19.054;2023-04-30T09:24:16;100408.62;;;20.51;42.39
75891;BME280;64571;47.512;19.054;2023-04-30T09:27:21;100413.72;;;20.61;42.03
75891;BME280;64571;47.512;19.054;2023-04-30T09:30:30;100416.47;;;19.97;44.01
75891;BME280;64571;47.512;19.054;2023-04-30T09:33:44;100409.75;;;19.86;44.34
75891;BME280;64571;47.512;19.054;2023-04-30T09:36:54;100406.34;;;20.56;42.99
75891;BME280;64571;47.512;19.054;2023-04-30T09:39:57;100405.94;;;20.89;42.02
75891;BME280;64571;47.512;19.054;2023-04-30T09:43:00;100398.97;;;20.67;41.51
75891;BME280;64571;47.512;19.054;2023-04-30T09:46:02;100385.53;;;20.80;41.34
75891;BME280;64571;47.512;19.054;2023-04-30T09:49:05;100385.87;;;20.94;40.50
75891;BME280;64571;47.512;19.054;2023-04-30T09:52:09;100378.06;;;21.07;40.74
75891;BME280;64571;47.512;19.054;2023-04-30T09:55:12;100389.25;;;21.19;40.37
75891;BME280;64571;47.512;19.054;2023-04-30T09:58:16;100378.56;;;20.27;41.86
75891;BME280;64571;47.512;19.054;2023-04-30T10:01:25;100399.16;;;19.83;42.86
75891;BME280;64571;47.512;19.054;2023-04-30T10:04:40;100395.31;;;20.67;41.17
75891;BME280;64571;47.512;19.054;2023-04-30T10:07:43;100394.47;;;20.82;40.64
75891;BME280;64571;47.512;19.054;2023-04-30T10:10:49;100373.09;;;21.01;40.05
75891;BME280;64571;47.512;19.054;2023-04-30T10:14:29;100379.44;;;21.52;39.33
75891;BME280;64571;47.512;19.054;2023-04-30T10:17:26;100394.25;;;21.65;38.64
75891;BME280;64571;47.512;19.054;2023-04-30T10:20:30;100394.25;;;21.26;39.53
75891;BME280;64571;47.512;19.054;2023-04-30T10:23:38;100383.13;;;21.53;38.45
75891;BME280;64571;47.512;19.054;2023-04-30T10:26:48;100382.28;;;20.97;39.48
75891;BME280;64571;47.512;19.054;2023-04-30T10:29:51;100388.00;;;21.17;39.04
75891;BME280;64571;47.512;19.054;2023-04-30T10:33:15;100392.87;;;21.01;39.80
75891;BME280;64571;47.512;19.054;2023-04-30T10:36:28;100372.28;;;21.78;37.96
75891;BME280;64571;47.512;19.054;2023-04-30T10:39:37;100382.16;;;21.45;38.32
75891;BME280;64571;47.512;19.054;2023-04-30T10:42:48;100382.38;;;21.36;38.38
75891;BME280;64571;47.512;19.054;2023-04-30T10:45:50;100384.56;;;21.27;38.76
75891;BME280;64571;47.512;19.054;2023-04-30T10:48:54;100372.69;;;21.02;39.23
75891;BME280;64571;47.512;19.054;2023-04-30T10:52:01;100369.25;;;20.73;39.65
75891;BME280;64571;47.512;19.054;2023-04-30T10:55:06;100385.28;;;20.69;40.21
75891;BME280;64571;47.512;19.054;2023-04-30T10:58:33;100357.66;;;20.79;40.15
75891;BME280;64571;47.512;19.054;2023-04-30T11:01:55;100383.59;;;20.84;42.05
75891;BME280;64571;47.512;19.054;2023-04-30T11:08:12;100375.19;;;20.53;40.55
75891;BME280;64571;47.512;19.054;2023-04-30T11:11:18;100376.84;;;20.54;40.07
75891;BME280;64571;47.512;19.054;2023-04-30T11:14:25;100363.97;;;20.24;40.81
75891;BME280;64571;47.512;19.054;2023-04-30T11:17:27;100378.09;;;20.56;40.40
75891;BME280;64571;47.512;19.054;2023-04-30T11:20:31;100378.00;;;21.04;39.51
75891;BME280;64571;47.512;19.054;2023-04-30T11:23:33;100362.59;;;21.36;38.43
75891;BME280;64571;47.512;19.054;2023-04-30T11:27:11;100381.47;;;21.71;38.55
75891;BME280;64571;47.512;19.054;2023-04-30T11:30:16;100384.06;;;21.60;39.04
75891;BME280;64571;47.512;19.054;2023-04-30T11:33:20;100381.34;;;20.90;40.42
75891;BME280;64571;47.512;19.054;2023-04-30T11:36:22;100381.81;;;20.29;41.55
75891;BME280;64571;47.512;19.054;2023-04-30T11:39:27;100387.06;;;19.98;42.54
75891;BME280;64571;47.512;19.054;2023-04-30T11:42:30;100385.34;;;19.94;42.44
75891;BME280;64571;47.512;19.054;2023-04-30T11:45:36;100380.91;;;20.40;41.69
75891;BME280;64571;47.512;19.054;2023-04-30T11:48:42;100382.00;;;21.03;40.30
75891;BME280;64571;47.512;19.054;2023-04-30T11:51:49;100385.69;;;21.22;39.71
75891;BME280;64571;47.512;19.054;2023-04-30T11:54:54;100376.19;;;21.50;38.66
75891;BME280;64571;47.512;19.054;2023-04-30T11:57:57;100384.97;;;21.64;38.38
75891;BME280;64571;47.512;19.054;2023-04-30T12:01:01;100381.53;;;21.74;38.14
75891;BME280;64571;47.512;19.054;2023-04-30T12:04:04;100378.78;;;22.01;37.58
75891;BME280;64571;47.512;19.054;2023-04-30T12:07:07;100367.28;;;21.90;37.54
75891;BME280;64571;47.512;19.054;2023-04-30T12:10:11;100366.91;;;21.92;37.22
75891;BME280;64571;47.512;19.054;2023-04-30T12:13:13;100376.75;;;22.44;36.48
75891;BME280;64571;47.512;19.054;2023-04-30T12:16:18;100365.81;;;22.19;36.52
75891;BME280;64571;47.512;19.054;2023-04-30T12:19:21;100353.72;;;22.22;36.35
75891;BME280;64571;47.512;19.054;2023-04-30T12:22:27;100366.25;;;22.44;35.98
75891;BME280;64571;47.512;19.054;2023-04-30T12:25:29;100358.78;;;21.90;36.60
75891;BME280;64571;47.512;19.054;2023-04-30T12:28:33;100345.41;;;22.33;35.90
75891;BME280;64571;47.512;19.054;2023-04-30T12:31:36;100365.50;;;22.47;35.75
75891;BME280;64571;47.512;19.054;2023-04-30T12:34:40;100343.53;;;22.18;35.64
75891;BME280;64571;47.512;19.054;2023-04-30T12:37:44;100352.09;;;21.79;36.78
75891;BME280;64571;47.512;19.054;2023-04-30T12:40:47;100349.03;;;21.45;37.69
75891;BME280;64571;47.512;19.054;2023-04-30T12:44:22;100339.41;;;21.31;37.92
75891;BME280;64571;47.512;19.054;2023-04-30T12:47:25;100346.25;;;21.10;38.55
75891;BME280;64571;47.512;19.054;2023-04-30T12:50:27;100334.41;;;21.05;38.43
75891;BME280;64571;47.512;19.054;2023-04-30T12:53:30;100341.09;;;20.96;38.98
75891;BME280;64571;47.512;19.054;2023-04-30T12:56:33;100313.31;;;20.63;39.60
75891;BME280;64571;47.512;19.054;2023-04-30T13:00:01;100330.16;;;20.44;40.27
75891;BME280;64571;47.512;19.054;2023-04-30T13:03:02;100329.63;;;20.38;40.53
75891;BME280;64571;47.512;19.054;2023-04-30T13:06:05;100334.03;;;20.36;41.04
75891;BME280;64571;47.512;19.054;2023-04-30T13:09:08;100320.28;;;20.18;40.79
75891;BME280;64571;47.512;19.054;2023-04-30T13:12:11;100307.44;;;20.05;40.82
75891;BME280;64571;47.512;19.054;2023-04-30T13:15:14;100318.09;;;20.12;40.73
75891;BME280;64571;47.512;19.054;2023-04-30T13:18:17;100320.56;;;20.13;40.55
75891;BME280;64571;47.512;19.054;2023-04-30T13:21:19;100300.72;;;20.10;40.54
75891;BME280;64571;47.512;19.054;2023-04-30T13:24:22;100299.25;;;20.16;40.51
75891;BME280;64571;47.512;19.054;2023-04-30T13:27:24;100312.34;;;20.24;40.45
75891;BME280;64571;47.512;19.054;2023-04-30T13:30:27;100313.34;;;20.16;40.71
75891;BME280;64571;47.512;19.054;2023-04-30T13:33:30;100298.66;;;20.58;39.76
75891;BME280;64571;47.512;19.054;2023-04-30T13:36:32;100307.12;;;21.51;37.64
75891;BME280;64571;47.512;19.054;2023-04-30T13:39:35;100299.47;;;21.32;37.63
75891;BME280;64571;47.512;19.054;2023-04-30T13:42:40;100295.88;;;20.96;38.11
75891;BME280;64571;47.512;19.054;2023-04-30T13:45:43;100304.66;;;21.11;37.82
75891;BME280;64571;47.512;19.054;2023-04-30T13:48:46;100305.47;;;21.11;38.28
75891;BME280;64571;47.512;19.054;2023-04-30T13:51:51;100303.47;;;20.92;38.64
75891;BME280;64571;47.512;19.054;2023-04-30T13:54:53;100313.31;;;20.98;38.61
75891;BME280;64571;47.512;19.054;2023-04-30T13:57:56;100301.91;;;21.34;37.56
75891;BME280;64571;47.512;19.054;2023-04-30T14:00:58;100303.00;;;21.29;37.62
75891;BME280;64571;47.512;19.054;2023-04-30T14:04:01;100300.34;;;20.97;38.20
75891;BME280;64571;47.512;19.054;2023-04-30T14:07:04;100298.81;;;20.65;38.73
75891;BME280;64571;47.512;19.054;2023-04-30T14:10:07;100298.81;;;20.65;38.81
75891;BME280;64571;47.512;19.054;2023-04-30T14:13:09;100312.69;;;20.89;38.63
75891;BME280;64571;47.512;19.054;2023-04-30T14:16:12;100297.97;;;20.99;38.00
75891;BME280;64571;47.512;19.054;2023-04-30T14:19:14;100311.50;;;20.90;38.05
75891;BME280;64571;47.512;19.054;2023-04-30T14:22:17;100300.72;;;20.77;38.36
75891;BME280;64571;47.512;19.054;2023-04-30T14:25:20;100303.44;;;20.73;38.65
75891;BME280;64571;47.512;19.054;2023-04-30T14:28:22;100293.38;;;20.56;39.27
75891;BME280;64571;47.512;19.054;2023-04-30T14:31:25;100307.59;;;20.60;39.41
75891;BME280;64571;47.512;19.054;2023-04-30T14:34:28;100311.31;;;20.64;39.52
75891;BME280;64571;47.512;19.054;2023-04-30T14:37:30;100310.28;;;20.72;39.71
75891;BME280;64571;47.512;19.054;2023-04-30T14:40:33;100312.69;;;20.89;39.32
75891;BME280;64571;47.512;19.054;2023-04-30T14:43:35;100315.13;;;20.71;39.34
75891;BME280;64571;47.512;19.054;2023-04-30T14:46:38;100308.41;;;20.60;39.59
75891;BME280;64571;47.512;19.054;2023-04-30T14:49:40;100315.34;;;20.63;39.65
75891;BME280;64571;47.512;19.054;2023-04-30T14:52:43;100307.50;;;20.40;39.88
75891;BME280;64571;47.512;19.054;2023-04-30T14:55:45;100301.00;;;20.05;40.18
75891;BME280;64571;47.512;19.054;2023-04-30T14:58:48;100320.00;;;20.23;40.14
75891;BME280;64571;47.512;19.054;2023-04-30T15:01:50;100331.66;;;20.22;40.39
75891;BME280;64571;47.512;19.054;2023-04-30T15:04:53;100337.22;;;19.87;45.32
75891;BME280;64571;47.512;19.054;2023-04-30T15:07:55;100328.81;;;19.46;47.80
75891;BME280;64571;47.512;19.054;2023-04-30T15:10:58;100326.16;;;19.38;48.44
75891;BME280;64571;47.512;19.054;2023-04-30T15:14:01;100353.72;;;19.16;49.58
75891;BME280;64571;47.512;19.054;2023-04-30T15:17:03;100352.13;;;19.03;49.71
75891;BME280;64571;47.512;19.054;2023-04-30T15:20:06;100345.69;;;18.90;49.77
75891;BME280;64571;47.512;19.054;2023-04-30T15:23:10;100350.88;;;18.76;50.37
75891;BME280;64571;47.512;19.054;2023-04-30T15:26:13;100368.94;;;18.63;51.32
75891;BME280;64571;47.512;19.054;2023-04-30T15:29:16;100386.06;;;18.45;51.94
75891;BME280;64571;47.512;19.054;2023-04-30T15:32:19;100382.09;;;18.46;52.07
75891;BME280;64571;47.512;19.054;2023-04-30T15:35:22;100371.06;;;18.29;52.71
75891;BME280;64571;47.512;19.054;2023-04-30T15:38:24;100394.16;;;18.35;53.37
75891;BME280;64571;47.512;19.054;2023-04-30T15:41:27;100383.25;;;18.21;53.92
75891;BME280;64571;47.512;19.054;2023-04-30T15:44:29;100399.19;;;18.17;54.43
75891;BME280;64571;47.512;19.054;2023-04-30T15:47:32;100416.53;;;18.19;54.50
75891;BME280;64571;47.512;19.054;2023-04-30T15:50:34;100411.16;;;18.26;54.52
75891;BME280;64571;47.512;19.054;2023-04-30T15:53:37;100395.97;;;17.94;55.26
75891;BME280;64571;47.512;19.054;2023-04-30T15:56:40;100423.41;;;17.97;55.28
75891;BME280;64571;47.512;19.054;2023-04-30T15:59:42;100424.19;;;17.85;55.54
75891;BME280;64571;47.512;19.054;2023-04-30T16:02:45;100425.88;;;17.99;55.22
75891;BME280;64571;47.512;19.054;2023-04-30T16:05:48;100408.50;;;17.96;55.05
75891;BME280;64571;47.512;19.054;2023-04-30T16:08:50;100412.97;;;17.98;55.31